Terminal Aerodrome Forecast
Issued by NWS

Home | Current Version | Previous Version | Text Only | Print | Product List | Glossary On
Versions: 1 2 3 4 5 6 7 8 9 10 11 12 13 14 15 16
098
FTUS44 KTSA 041546 AAA
TAFBVO
TAF AMD
KBVO 041546Z 0416/0512 VRB03KT P6SM FEW008 SCT029
     FM041800 33005KT P6SM SKC
     FM050000 00000KT P6SM SCT250
     FM050900 00000KT 2SM BR FEW003 SCT250=

USA.gov is the U.S. government's official web portal to all federal, state and local government web resources and services.